sensor_id;sensor_type;location;lat;lon;timestamp;temperature;humidity
22544;DHT22;11438;52.044;8.716;2022-08-21T00:02:23;20.90;87.20
22544;DHT22;11438;52.044;8.716;2022-08-21T00:04:49;20.90;87.60
22544;DHT22;11438;52.044;8.716;2022-08-21T00:07:16;20.90;87.60
22544;DHT22;11438;52.044;8.716;2022-08-21T00:09:41;20.90;87.50
22544;DHT22;11438;52.044;8.716;2022-08-21T00:12:07;20.90;87.70
22544;DHT22;11438;52.044;8.716;2022-08-21T00:14:34;20.90;87.50
22544;DHT22;11438;52.044;8.716;2022-08-21T00:17:00;20.80;87.40
22544;DHT22;11438;52.044;8.716;2022-08-21T00:19:26;20.80;87.40
22544;DHT22;11438;52.044;8.716;2022-08-21T00:21:52;20.80;87.20
22544;DHT22;11438;52.044;8.716;2022-08-21T00:24:19;20.80;87.30
22544;DHT22;11438;52.044;8.716;2022-08-21T00:26:45;20.80;87.60
22544;DHT22;11438;52.044;8.716;2022-08-21T00:29:11;20.80;87.70
22544;DHT22;11438;52.044;8.716;2022-08-21T00:31:37;20.80;87.80
22544;DHT22;11438;52.044;8.716;2022-08-21T00:34:03;20.80;87.80
22544;DHT22;11438;52.044;8.716;2022-08-21T00:36:29;20.80;88.10
22544;DHT22;11438;52.044;8.716;2022-08-21T00:38:55;20.80;88.30
22544;DHT22;11438;52.044;8.716;2022-08-21T00:41:20;20.80;88.40
22544;DHT22;11438;52.044;8.716;2022-08-21T00:43:48;20.80;88.60
22544;DHT22;11438;52.044;8.716;2022-08-21T00:46:15;20.80;88.70
22544;DHT22;11438;52.044;8.716;2022-08-21T00:48:40;20.80;88.60
22544;DHT22;11438;52.044;8.716;2022-08-21T00:51:19;20.80;88.70
22544;DHT22;11438;52.044;8.716;2022-08-21T00:53:50;20.80;88.90
22544;DHT22;11438;52.044;8.716;2022-08-21T00:56:19;20.80;88.90
22544;DHT22;11438;52.044;8.716;2022-08-21T00:58:45;20.80;88.90
22544;DHT22;11438;52.044;8.716;2022-08-21T01:01:11;20.80;88.70
22544;DHT22;11438;52.044;8.716;2022-08-21T01:03:37;20.70;88.80
22544;DHT22;11438;52.044;8.716;2022-08-21T01:06:04;20.80;88.80
22544;DHT22;11438;52.044;8.716;2022-08-21T01:08:30;20.70;89.00
22544;DHT22;11438;52.044;8.716;2022-08-21T01:10:56;20.70;90.00
22544;DHT22;11438;52.044;8.716;2022-08-21T01:13:23;20.80;89.50
22544;DHT22;11438;52.044;8.716;2022-08-21T01:15:52;20.70;89.50
22544;DHT22;11438;52.044;8.716;2022-08-21T01:18:19;20.70;89.60
22544;DHT22;11438;52.044;8.716;2022-08-21T01:21:07;20.70;89.60
22544;DHT22;11438;52.044;8.716;2022-08-21T01:23:35;20.70;89.40
22544;DHT22;11438;52.044;8.716;2022-08-21T01:26:02;20.70;89.30
22544;DHT22;11438;52.044;8.716;2022-08-21T01:28:28;20.70;89.30
22544;DHT22;11438;52.044;8.716;2022-08-21T01:30:55;20.70;89.30
22544;DHT22;11438;52.044;8.716;2022-08-21T01:33:22;20.70;89.20
22544;DHT22;11438;52.044;8.716;2022-08-21T01:35:49;20.60;89.20
22544;DHT22;11438;52.044;8.716;2022-08-21T01:38:14;20.70;89.00
22544;DHT22;11438;52.044;8.716;2022-08-21T01:40:40;20.60;89.00
22544;DHT22;11438;52.044;8.716;2022-08-21T01:43:05;20.60;89.00
22544;DHT22;11438;52.044;8.716;2022-08-21T01:45:31;20.60;88.90
22544;DHT22;11438;52.044;8.716;2022-08-21T01:47:56;20.60;88.80
22544;DHT22;11438;52.044;8.716;2022-08-21T01:50:22;20.60;88.90
22544;DHT22;11438;52.044;8.716;2022-08-21T01:52:49;20.50;88.90
22544;DHT22;11438;52.044;8.716;2022-08-21T01:55:16;20.50;89.00
22544;DHT22;11438;52.044;8.716;2022-08-21T01:57:43;20.50;89.10
22544;DHT22;11438;52.044;8.716;2022-08-21T02:00:11;20.40;88.90
22544;DHT22;11438;52.044;8.716;2022-08-21T02:02:39;20.40;88.90
22544;DHT22;11438;52.044;8.716;2022-08-21T02:05:05;20.40;88.90
22544;DHT22;11438;52.044;8.716;2022-08-21T02:07:39;20.40;89.10
22544;DHT22;11438;52.044;8.716;2022-08-21T02:10:07;20.30;89.30
22544;DHT22;11438;52.044;8.716;2022-08-21T02:12:33;20.30;89.50
22544;DHT22;11438;52.044;8.716;2022-08-21T02:14:58;20.30;89.60
22544;DHT22;11438;52.044;8.716;2022-08-21T02:17:24;20.30;89.60
22544;DHT22;11438;52.044;8.716;2022-08-21T02:19:49;20.20;89.50
22544;DHT22;11438;52.044;8.716;2022-08-21T02:22:15;20.20;89.30
22544;DHT22;11438;52.044;8.716;2022-08-21T02:24:40;20.20;89.00
22544;DHT22;11438;52.044;8.716;2022-08-21T02:27:06;20.20;88.90
22544;DHT22;11438;52.044;8.716;2022-08-21T02:29:31;20.10;89.00
22544;DHT22;11438;52.044;8.716;2022-08-21T02:31:57;20.10;89.00
22544;DHT22;11438;52.044;8.716;2022-08-21T02:34:22;20.10;89.10
22544;DHT22;11438;52.044;8.716;2022-08-21T02:36:48;20.10;89.20
22544;DHT22;11438;52.044;8.716;2022-08-21T02:39:13;20.00;89.30
22544;DHT22;11438;52.044;8.716;2022-08-21T02:41:39;20.00;89.50
22544;DHT22;11438;52.044;8.716;2022-08-21T02:44:04;20.00;89.60
22544;DHT22;11438;52.044;8.716;2022-08-21T02:46:30;20.00;89.70
22544;DHT22;11438;52.044;8.716;2022-08-21T02:48:55;20.00;89.80
22544;DHT22;11438;52.044;8.716;2022-08-21T02:51:21;20.00;89.80
22544;DHT22;11438;52.044;8.716;2022-08-21T02:53:48;20.00;89.80
22544;DHT22;11438;52.044;8.716;2022-08-21T02:56:17;20.00;90.00
22544;DHT22;11438;52.044;8.716;2022-08-21T02:58:49;20.00;90.00
22544;DHT22;11438;52.044;8.716;2022-08-21T03:01:15;20.00;90.00
22544;DHT22;11438;52.044;8.716;2022-08-21T03:03:43;20.00;90.10
22544;DHT22;11438;52.044;8.716;2022-08-21T03:06:11;20.00;90.30
22544;DHT22;11438;52.044;8.716;2022-08-21T03:08:38;20.00;90.30
22544;DHT22;11438;52.044;8.716;2022-08-21T03:11:04;20.00;90.30
22544;DHT22;11438;52.044;8.716;2022-08-21T03:13:29;19.90;90.30
22544;DHT22;11438;52.044;8.716;2022-08-21T03:15:56;19.90;90.30
22544;DHT22;11438;52.044;8.716;2022-08-21T03:18:22;19.90;90.20
22544;DHT22;11438;52.044;8.716;2022-08-21T03:20:47;19.90;90.20
22544;DHT22;11438;52.044;8.716;2022-08-21T03:23:14;19.90;90.20
22544;DHT22;11438;52.044;8.716;2022-08-21T03:25:41;19.90;90.10
22544;DHT22;11438;52.044;8.716;2022-08-21T03:28:12;19.90;90.00
22544;DHT22;11438;52.044;8.716;2022-08-21T03:30:39;19.80;90.00
22544;DHT22;11438;52.044;8.716;2022-08-21T03:33:05;19.80;90.00
22544;DHT22;11438;52.044;8.716;2022-08-21T03:35:30;19.80;90.10
22544;DHT22;11438;52.044;8.716;2022-08-21T03:37:56;19.80;90.20
22544;DHT22;11438;52.044;8.716;2022-08-21T03:40:23;19.70;90.30
22544;DHT22;11438;52.044;8.716;2022-08-21T03:42:50;19.70;90.40
22544;DHT22;11438;52.044;8.716;2022-08-21T03:45:17;19.70;90.40
22544;DHT22;11438;52.044;8.716;2022-08-21T03:48:00;19.70;90.60
22544;DHT22;11438;52.044;8.716;2022-08-21T03:50:29;19.70;90.70
22544;DHT22;11438;52.044;8.716;2022-08-21T03:52:55;19.70;90.60
22544;DHT22;11438;52.044;8.716;2022-08-21T03:55:21;19.70;90.60
22544;DHT22;11438;52.044;8.716;2022-08-21T03:57:47;19.70;90.60
22544;DHT22;11438;52.044;8.716;2022-08-21T04:00:14;19.70;90.70
22544;DHT22;11438;52.044;8.716;2022-08-21T04:02:41;19.70;90.70
22544;DHT22;11438;52.044;8.716;2022-08-21T04:05:07;19.70;90.90
22544;DHT22;11438;52.044;8.716;2022-08-21T04:07:33;19.70;90.90
22544;DHT22;11438;52.044;8.716;2022-08-21T04:09:58;19.70;90.80
22544;DHT22;11438;52.044;8.716;2022-08-21T04:12:24;19.70;90.90
22544;DHT22;11438;52.044;8.716;2022-08-21T04:14:49;19.70;90.90
22544;DHT22;11438;52.044;8.716;2022-08-21T04:17:17;19.70;90.90
22544;DHT22;11438;52.044;8.716;2022-08-21T04:19:42;19.70;90.90
22544;DHT22;11438;52.044;8.716;2022-08-21T04:22:08;19.80;91.00
22544;DHT22;11438;52.044;8.716;2022-08-21T04:24:33;19.80;91.10
22544;DHT22;11438;52.044;8.716;2022-08-21T04:26:59;19.80;91.10
22544;DHT22;11438;52.044;8.716;2022-08-21T04:29:25;19.80;91.10
22544;DHT22;11438;52.044;8.716;2022-08-21T04:31:50;19.80;91.10
22544;DHT22;11438;52.044;8.716;2022-08-21T04:34:17;19.80;91.10
22544;DHT22;11438;52.044;8.716;2022-08-21T04:36:43;19.80;91.10
22544;DHT22;11438;52.044;8.716;2022-08-21T04:39:09;19.80;91.00
22544;DHT22;11438;52.044;8.716;2022-08-21T04:41:35;19.80;91.00
22544;DHT22;11438;52.044;8.716;2022-08-21T04:44:01;19.80;91.00
22544;DHT22;11438;52.044;8.716;2022-08-21T04:46:27;19.80;91.00
22544;DHT22;11438;52.044;8.716;2022-08-21T04:48:52;19.80;91.40
22544;DHT22;11438;52.044;8.716;2022-08-21T04:51:23;19.80;91.00
22544;DHT22;11438;52.044;8.716;2022-08-21T04:53:53;19.80;91.10
22544;DHT22;11438;52.044;8.716;2022-08-21T04:56:23;19.80;91.10
22544;DHT22;11438;52.044;8.716;2022-08-21T04:58:50;19.80;91.10
22544;DHT22;11438;52.044;8.716;2022-08-21T05:01:21;19.80;91.20
22544;DHT22;11438;52.044;8.716;2022-08-21T05:03:48;19.80;91.30
22544;DHT22;11438;52.044;8.716;2022-08-21T05:06:15;19.80;91.40
22544;DHT22;11438;52.044;8.716;2022-08-21T05:08:42;19.80;91.30
22544;DHT22;11438;52.044;8.716;2022-08-21T05:11:09;19.80;91.30
22544;DHT22;11438;52.044;8.716;2022-08-21T05:13:35;19.80;91.40
22544;DHT22;11438;52.044;8.716;2022-08-21T05:16:01;19.80;91.30
22544;DHT22;11438;52.044;8.716;2022-08-21T05:18:26;19.80;91.30
22544;DHT22;11438;52.044;8.716;2022-08-21T05:20:52;19.80;91.30
22544;DHT22;11438;52.044;8.716;2022-08-21T05:23:17;19.80;91.30
22544;DHT22;11438;52.044;8.716;2022-08-21T05:25:43;19.70;91.30
22544;DHT22;11438;52.044;8.716;2022-08-21T05:28:09;19.70;91.30
22544;DHT22;11438;52.044;8.716;2022-08-21T05:30:36;19.70;91.30
22544;DHT22;11438;52.044;8.716;2022-08-21T05:33:03;19.70;91.40
22544;DHT22;11438;52.044;8.716;2022-08-21T05:35:29;19.70;91.50
22544;DHT22;11438;52.044;8.716;2022-08-21T05:37:56;19.70;91.60
22544;DHT22;11438;52.044;8.716;2022-08-21T05:40:22;19.70;91.60
22544;DHT22;11438;52.044;8.716;2022-08-21T05:42:52;19.70;91.60
22544;DHT22;11438;52.044;8.716;2022-08-21T05:45:18;19.70;91.60
22544;DHT22;11438;52.044;8.716;2022-08-21T05:47:43;19.70;91.90
22544;DHT22;11438;52.044;8.716;2022-08-21T05:50:09;19.80;92.00
22544;DHT22;11438;52.044;8.716;2022-08-21T05:52:35;19.80;92.40
22544;DHT22;11438;52.044;8.716;2022-08-21T05:55:00;19.80;92.00
22544;DHT22;11438;52.044;8.716;2022-08-21T05:57:26;19.80;92.00
22544;DHT22;11438;52.044;8.716;2022-08-21T05:59:52;19.80;92.10
22544;DHT22;11438;52.044;8.716;2022-08-21T06:02:19;19.90;92.10
22544;DHT22;11438;52.044;8.716;2022-08-21T06:04:45;19.90;92.20
22544;DHT22;11438;52.044;8.716;2022-08-21T06:07:10;19.90;92.20
22544;DHT22;11438;52.044;8.716;2022-08-21T06:09:36;19.90;92.30
22544;DHT22;11438;52.044;8.716;2022-08-21T06:12:04;20.00;92.30
22544;DHT22;11438;52.044;8.716;2022-08-21T06:14:30;20.00;92.30
22544;DHT22;11438;52.044;8.716;2022-08-21T06:17:02;20.10;92.40
22544;DHT22;11438;52.044;8.716;2022-08-21T06:19:28;20.10;92.60
22544;DHT22;11438;52.044;8.716;2022-08-21T06:21:53;20.20;92.40
22544;DHT22;11438;52.044;8.716;2022-08-21T06:24:19;20.20;92.30
22544;DHT22;11438;52.044;8.716;2022-08-21T06:26:44;20.20;92.50
22544;DHT22;11438;52.044;8.716;2022-08-21T06:29:12;20.20;92.50
22544;DHT22;11438;52.044;8.716;2022-08-21T06:31:41;20.30;92.50
22544;DHT22;11438;52.044;8.716;2022-08-21T06:34:07;20.30;92.50
22544;DHT22;11438;52.044;8.716;2022-08-21T06:36:32;20.40;92.60
22544;DHT22;11438;52.044;8.716;2022-08-21T06:38:58;20.40;92.50
22544;DHT22;11438;52.044;8.716;2022-08-21T06:41:23;20.40;92.60
22544;DHT22;11438;52.044;8.716;2022-08-21T06:43:49;20.50;92.50
22544;DHT22;11438;52.044;8.716;2022-08-21T06:46:14;20.50;92.50
22544;DHT22;11438;52.044;8.716;2022-08-21T06:48:40;20.60;92.40
22544;DHT22;11438;52.044;8.716;2022-08-21T06:51:05;20.60;92.40
22544;DHT22;11438;52.044;8.716;2022-08-21T06:53:31;20.70;92.40
22544;DHT22;11438;52.044;8.716;2022-08-21T06:55:56;20.70;92.40
22544;DHT22;11438;52.044;8.716;2022-08-21T06:58:22;20.70;92.50
22544;DHT22;11438;52.044;8.716;2022-08-21T07:00:49;20.80;92.70
22544;DHT22;11438;52.044;8.716;2022-08-21T07:03:21;20.90;92.70
22544;DHT22;11438;52.044;8.716;2022-08-21T07:05:47;20.90;92.70
22544;DHT22;11438;52.044;8.716;2022-08-21T07:08:13;21.00;92.80
22544;DHT22;11438;52.044;8.716;2022-08-21T07:10:38;21.00;92.80
22544;DHT22;11438;52.044;8.716;2022-08-21T07:13:04;21.10;92.80
22544;DHT22;11438;52.044;8.716;2022-08-21T07:15:29;21.10;92.60
22544;DHT22;11438;52.044;8.716;2022-08-21T07:17:55;21.20;92.50
22544;DHT22;11438;52.044;8.716;2022-08-21T07:20:20;21.20;92.40
22544;DHT22;11438;52.044;8.716;2022-08-21T07:22:46;21.30;92.20
22544;DHT22;11438;52.044;8.716;2022-08-21T07:25:11;21.30;92.10
22544;DHT22;11438;52.044;8.716;2022-08-21T07:27:37;21.40;91.90
22544;DHT22;11438;52.044;8.716;2022-08-21T07:30:04;21.50;91.80
22544;DHT22;11438;52.044;8.716;2022-08-21T07:32:30;21.50;91.70
22544;DHT22;11438;52.044;8.716;2022-08-21T07:34:56;21.60;91.50
22544;DHT22;11438;52.044;8.716;2022-08-21T07:37:21;21.60;91.10
22544;DHT22;11438;52.044;8.716;2022-08-21T07:39:47;21.70;90.80
22544;DHT22;11438;52.044;8.716;2022-08-21T07:42:14;21.70;90.70
22544;DHT22;11438;52.044;8.716;2022-08-21T07:44:40;21.80;90.80
22544;DHT22;11438;52.044;8.716;2022-08-21T07:47:05;21.80;90.90
22544;DHT22;11438;52.044;8.716;2022-08-21T07:49:31;21.90;90.60
22544;DHT22;11438;52.044;8.716;2022-08-21T07:51:57;22.00;90.20
22544;DHT22;11438;52.044;8.716;2022-08-21T07:54:22;22.00;90.00
22544;DHT22;11438;52.044;8.716;2022-08-21T07:56:48;22.10;89.90
22544;DHT22;11438;52.044;8.716;2022-08-21T07:59:13;22.10;89.40
22544;DHT22;11438;52.044;8.716;2022-08-21T08:01:39;22.20;88.70
22544;DHT22;11438;52.044;8.716;2022-08-21T08:04:05;22.20;89.10
22544;DHT22;11438;52.044;8.716;2022-08-21T08:06:30;22.30;89.40
22544;DHT22;11438;52.044;8.716;2022-08-21T08:08:56;22.30;89.40
22544;DHT22;11438;52.044;8.716;2022-08-21T08:11:21;22.40;89.40
22544;DHT22;11438;52.044;8.716;2022-08-21T08:13:50;22.50;88.90
22544;DHT22;11438;52.044;8.716;2022-08-21T08:16:16;22.50;87.80
22544;DHT22;11438;52.044;8.716;2022-08-21T08:18:42;22.50;87.20
22544;DHT22;11438;52.044;8.716;2022-08-21T08:21:09;22.60;87.40
22544;DHT22;11438;52.044;8.716;2022-08-21T08:23:35;22.70;86.20
22544;DHT22;11438;52.044;8.716;2022-08-21T08:26:01;22.70;85.60
22544;DHT22;11438;52.044;8.716;2022-08-21T08:28:30;22.70;84.80
22544;DHT22;11438;52.044;8.716;2022-08-21T08:30:57;22.80;84.40
22544;DHT22;11438;52.044;8.716;2022-08-21T08:33:22;22.90;85.00
22544;DHT22;11438;52.044;8.716;2022-08-21T08:35:52;22.90;84.60
22544;DHT22;11438;52.044;8.716;2022-08-21T08:38:20;22.90;84.30
22544;DHT22;11438;52.044;8.716;2022-08-21T08:43:35;23.00;83.70
22544;DHT22;11438;52.044;8.716;2022-08-21T08:46:12;23.10;84.00
22544;DHT22;11438;52.044;8.716;2022-08-21T08:49:00;23.20;82.60
22544;DHT22;11438;52.044;8.716;2022-08-21T08:52:17;23.20;82.90
22544;DHT22;11438;52.044;8.716;2022-08-21T08:54:19;23.30;82.50
22544;DHT22;11438;52.044;8.716;2022-08-21T08:56:46;23.40;82.30
22544;DHT22;11438;52.044;8.716;2022-08-21T08:59:22;23.40;82.50
22544;DHT22;11438;52.044;8.716;2022-08-21T09:01:49;23.50;81.80
22544;DHT22;11438;52.044;8.716;2022-08-21T09:04:22;23.50;81.80
22544;DHT22;11438;52.044;8.716;2022-08-21T09:06:53;23.60;80.80
22544;DHT22;11438;52.044;8.716;2022-08-21T09:12:10;23.70;79.80
22544;DHT22;11438;52.044;8.716;2022-08-21T09:17:59;23.90;79.20
22544;DHT22;11438;52.044;8.716;2022-08-21T09:20:56;24.00;77.80
22544;DHT22;11438;52.044;8.716;2022-08-21T09:26:19;24.10;77.70
22544;DHT22;11438;52.044;8.716;2022-08-21T09:28:46;24.10;78.00
22544;DHT22;11438;52.044;8.716;2022-08-21T09:31:31;24.20;77.60
22544;DHT22;11438;52.044;8.716;2022-08-21T09:34:03;24.20;76.70
22544;DHT22;11438;52.044;8.716;2022-08-21T09:36:47;24.30;76.60
22544;DHT22;11438;52.044;8.716;2022-08-21T09:42:10;24.40;76.50
22544;DHT22;11438;52.044;8.716;2022-08-21T09:44:38;24.50;74.60
22544;DHT22;11438;52.044;8.716;2022-08-21T09:47:06;24.50;74.00
22544;DHT22;11438;52.044;8.716;2022-08-21T09:49:35;24.60;74.00
22544;DHT22;11438;52.044;8.716;2022-08-21T09:52:03;24.60;74.00
22544;DHT22;11438;52.044;8.716;2022-08-21T09:54:35;24.70;74.20
22544;DHT22;11438;52.044;8.716;2022-08-21T09:57:14;24.70;73.90
22544;DHT22;11438;52.044;8.716;2022-08-21T10:00:15;24.80;73.60
22544;DHT22;11438;52.044;8.716;2022-08-21T10:02:41;24.80;73.40
22544;DHT22;11438;52.044;8.716;2022-08-21T10:05:20;24.90;73.90
22544;DHT22;11438;52.044;8.716;2022-08-21T10:07:45;24.90;72.20
22544;DHT22;11438;52.044;8.716;2022-08-21T10:18:27;25.00;71.30
22544;DHT22;11438;52.044;8.716;2022-08-21T10:26:20;25.20;72.60
22544;DHT22;11438;52.044;8.716;2022-08-21T10:31:58;25.20;72.30
22544;DHT22;11438;52.044;8.716;2022-08-21T10:34:32;25.30;72.40
22544;DHT22;11438;52.044;8.716;2022-08-21T10:37:07;25.40;72.10
22544;DHT22;11438;52.044;8.716;2022-08-21T10:39:36;25.50;71.90
22544;DHT22;11438;52.044;8.716;2022-08-21T10:42:08;25.60;71.00
22544;DHT22;11438;52.044;8.716;2022-08-21T10:52:57;25.90;69.80
22544;DHT22;11438;52.044;8.716;2022-08-21T10:55:41;26.00;70.40
22544;DHT22;11438;52.044;8.716;2022-08-21T10:58:12;26.00;70.60
22544;DHT22;11438;52.044;8.716;2022-08-21T11:00:55;26.10;71.40
22544;DHT22;11438;52.044;8.716;2022-08-21T11:03:31;26.20;69.80
22544;DHT22;11438;52.044;8.716;2022-08-21T11:06:04;26.30;70.60
22544;DHT22;11438;52.044;8.716;2022-08-21T11:08:35;26.30;68.90
22544;DHT22;11438;52.044;8.716;2022-08-21T11:11:16;26.40;69.70
22544;DHT22;11438;52.044;8.716;2022-08-21T11:13:51;26.40;70.00
22544;DHT22;11438;52.044;8.716;2022-08-21T11:18:57;26.60;67.40
22544;DHT22;11438;52.044;8.716;2022-08-21T11:21:34;26.60;66.90
22544;DHT22;11438;52.044;8.716;2022-08-21T11:26:52;26.70;66.60
22544;DHT22;11438;52.044;8.716;2022-08-21T11:29:34;26.70;65.90
22544;DHT22;11438;52.044;8.716;2022-08-21T11:32:16;26.80;65.50
22544;DHT22;11438;52.044;8.716;2022-08-21T11:40:22;26.90;65.10
22544;DHT22;11438;52.044;8.716;2022-08-21T11:45:45;27.00;63.90
22544;DHT22;11438;52.044;8.716;2022-08-21T11:48:15;27.10;63.10
22544;DHT22;11438;52.044;8.716;2022-08-21T11:50:48;27.20;64.30
22544;DHT22;11438;52.044;8.716;2022-08-21T11:53:18;27.20;63.40
22544;DHT22;11438;52.044;8.716;2022-08-21T11:56:03;27.20;63.10
22544;DHT22;11438;52.044;8.716;2022-08-21T11:58:44;27.30;62.60
22544;DHT22;11438;52.044;8.716;2022-08-21T12:01:16;27.40;63.40
22544;DHT22;11438;52.044;8.716;2022-08-21T12:03:55;27.40;62.70
22544;DHT22;11438;52.044;8.716;2022-08-21T12:06:31;27.50;62.30
22544;DHT22;11438;52.044;8.716;2022-08-21T12:09:01;27.50;62.60
22544;DHT22;11438;52.044;8.716;2022-08-21T12:11:27;27.60;61.10
22544;DHT22;11438;52.044;8.716;2022-08-21T12:14:00;27.60;61.50
22544;DHT22;11438;52.044;8.716;2022-08-21T12:16:41;27.60;60.00
22544;DHT22;11438;52.044;8.716;2022-08-21T12:19:13;27.70;60.60
22544;DHT22;11438;52.044;8.716;2022-08-21T12:21:57;27.70;60.80
22544;DHT22;11438;52.044;8.716;2022-08-21T12:26:55;27.80;60.20
22544;DHT22;11438;52.044;8.716;2022-08-21T12:29:36;27.80;59.30
22544;DHT22;11438;52.044;8.716;2022-08-21T12:34:48;27.80;59.20
22544;DHT22;11438;52.044;8.716;2022-08-21T12:37:43;27.80;58.80
22544;DHT22;11438;52.044;8.716;2022-08-21T12:40:22;27.80;59.80
22544;DHT22;11438;52.044;8.716;2022-08-21T12:42:51;27.90;60.20
22544;DHT22;11438;52.044;8.716;2022-08-21T12:45:38;27.90;59.50
22544;DHT22;11438;52.044;8.716;2022-08-21T12:48:35;28.00;59.30
22544;DHT22;11438;52.044;8.716;2022-08-21T12:51:17;28.00;59.30
22544;DHT22;11438;52.044;8.716;2022-08-21T12:53:47;28.10;59.20
22544;DHT22;11438;52.044;8.716;2022-08-21T12:56:19;28.10;57.60
22544;DHT22;11438;52.044;8.716;2022-08-21T12:59:05;28.20;56.30
22544;DHT22;11438;52.044;8.716;2022-08-21T13:01:35;28.20;57.40
22544;DHT22;11438;52.044;8.716;2022-08-21T13:04:04;28.30;57.40
22544;DHT22;11438;52.044;8.716;2022-08-21T13:06:41;28.40;56.60
22544;DHT22;11438;52.044;8.716;2022-08-21T13:09:13;28.40;55.50
22544;DHT22;11438;52.044;8.716;2022-08-21T13:11:41;28.40;55.90
22544;DHT22;11438;52.044;8.716;2022-08-21T13:14:17;28.50;56.20
22544;DHT22;11438;52.044;8.716;2022-08-21T13:16:47;28.40;56.40
22544;DHT22;11438;52.044;8.716;2022-08-21T13:19:17;28.50;55.80
22544;DHT22;11438;52.044;8.716;2022-08-21T13:21:43;28.60;56.40
22544;DHT22;11438;52.044;8.716;2022-08-21T13:24:22;28.50;56.20
22544;DHT22;11438;52.044;8.716;2022-08-21T13:26:49;28.60;56.30
22544;DHT22;11438;52.044;8.716;2022-08-21T13:29:18;28.70;56.10
22544;DHT22;11438;52.044;8.716;2022-08-21T13:31:54;28.70;56.50
22544;DHT22;11438;52.044;8.716;2022-08-21T13:34:33;28.70;56.20
22544;DHT22;11438;52.044;8.716;2022-08-21T13:37:02;28.70;56.20
22544;DHT22;11438;52.044;8.716;2022-08-21T13:39:29;28.70;55.50
22544;DHT22;11438;52.044;8.716;2022-08-21T13:41:58;28.70;54.90
22544;DHT22;11438;52.044;8.716;2022-08-21T13:44:43;28.70;54.80
22544;DHT22;11438;52.044;8.716;2022-08-21T13:47:12;28.70;54.10
22544;DHT22;11438;52.044;8.716;2022-08-21T13:49:42;28.70;53.00
22544;DHT22;11438;52.044;8.716;2022-08-21T13:52:20;28.70;53.60
22544;DHT22;11438;52.044;8.716;2022-08-21T13:55:06;28.70;53.40
22544;DHT22;11438;52.044;8.716;2022-08-21T13:57:33;28.70;53.50
22544;DHT22;11438;52.044;8.716;2022-08-21T14:00:16;28.70;53.80
22544;DHT22;11438;52.044;8.716;2022-08-21T14:02:45;28.70;54.60
22544;DHT22;11438;52.044;8.716;2022-08-21T14:05:26;28.80;53.00
22544;DHT22;11438;52.044;8.716;2022-08-21T14:08:06;28.80;53.20
22544;DHT22;11438;52.044;8.716;2022-08-21T14:10:36;28.80;53.00
22544;DHT22;11438;52.044;8.716;2022-08-21T14:13:04;28.90;52.70
22544;DHT22;11438;52.044;8.716;2022-08-21T14:15:33;28.90;52.70
22544;DHT22;11438;52.044;8.716;2022-08-21T14:18:14;28.90;52.80
22544;DHT22;11438;52.044;8.716;2022-08-21T14:20:41;28.90;53.50
22544;DHT22;11438;52.044;8.716;2022-08-21T14:23:06;28.90;53.30
22544;DHT22;11438;52.044;8.716;2022-08-21T14:25:41;28.90;53.10
22544;DHT22;11438;52.044;8.716;2022-08-21T14:28:26;28.90;53.10
22544;DHT22;11438;52.044;8.716;2022-08-21T14:30:52;28.90;53.50
22544;DHT22;11438;52.044;8.716;2022-08-21T14:33:26;28.90;52.90
22544;DHT22;11438;52.044;8.716;2022-08-21T14:35:53;29.00;52.70
22544;DHT22;11438;52.044;8.716;2022-08-21T14:38:21;29.00;53.20
22544;DHT22;11438;52.044;8.716;2022-08-21T14:40:50;29.00;52.90
22544;DHT22;11438;52.044;8.716;2022-08-21T14:43:17;29.00;53.30
22544;DHT22;11438;52.044;8.716;2022-08-21T14:45:44;29.10;53.10
22544;DHT22;11438;52.044;8.716;2022-08-21T14:48:10;29.10;52.90
22544;DHT22;11438;52.044;8.716;2022-08-21T14:50:36;29.20;52.50
22544;DHT22;11438;52.044;8.716;2022-08-21T14:53:02;29.20;52.10
22544;DHT22;11438;52.044;8.716;2022-08-21T14:55:30;29.20;52.20
22544;DHT22;11438;52.044;8.716;2022-08-21T14:57:56;29.20;51.60
22544;DHT22;11438;52.044;8.716;2022-08-21T15:00:24;29.20;50.80
22544;DHT22;11438;52.044;8.716;2022-08-21T15:02:50;29.20;51.00
22544;DHT22;11438;52.044;8.716;2022-08-21T15:05:16;29.20;51.20
22544;DHT22;11438;52.044;8.716;2022-08-21T15:07:42;29.20;50.20
22544;DHT22;11438;52.044;8.716;2022-08-21T15:10:08;29.20;50.50
22544;DHT22;11438;52.044;8.716;2022-08-21T15:12:34;29.20;50.30
22544;DHT22;11438;52.044;8.716;2022-08-21T15:15:00;29.20;50.80
22544;DHT22;11438;52.044;8.716;2022-08-21T15:17:27;29.20;51.40
22544;DHT22;11438;52.044;8.716;2022-08-21T15:19:52;29.10;50.90
22544;DHT22;11438;52.044;8.716;2022-08-21T15:22:18;29.20;50.00
22544;DHT22;11438;52.044;8.716;2022-08-21T15:24:43;29.10;49.80
22544;DHT22;11438;52.044;8.716;2022-08-21T15:27:10;29.10;50.20
22544;DHT22;11438;52.044;8.716;2022-08-21T15:29:36;29.10;50.00
22544;DHT22;11438;52.044;8.716;2022-08-21T15:32:25;29.00;49.50
22544;DHT22;11438;52.044;8.716;2022-08-21T15:34:53;28.90;50.00
22544;DHT22;11438;52.044;8.716;2022-08-21T15:37:19;28.90;49.10
22544;DHT22;11438;52.044;8.716;2022-08-21T15:39:45;28.90;50.10
22544;DHT22;11438;52.044;8.716;2022-08-21T15:42:11;28.90;49.50
22544;DHT22;11438;52.044;8.716;2022-08-21T15:44:41;28.80;50.40
22544;DHT22;11438;52.044;8.716;2022-08-21T15:47:13;28.80;50.30
22544;DHT22;11438;52.044;8.716;2022-08-21T15:49:40;28.80;49.40
22544;DHT22;11438;52.044;8.716;2022-08-21T15:52:07;28.70;49.80
22544;DHT22;11438;52.044;8.716;2022-08-21T15:54:34;28.70;50.30
22544;DHT22;11438;52.044;8.716;2022-08-21T15:56:59;28.70;50.00
22544;DHT22;11438;52.044;8.716;2022-08-21T15:59:25;28.70;50.30
22544;DHT22;11438;52.044;8.716;2022-08-21T16:01:52;28.60;50.30
22544;DHT22;11438;52.044;8.716;2022-08-21T16:04:26;28.60;50.60
22544;DHT22;11438;52.044;8.716;2022-08-21T16:06:52;28.60;50.60
22544;DHT22;11438;52.044;8.716;2022-08-21T16:09:18;28.60;49.90
22544;DHT22;11438;52.044;8.716;2022-08-21T16:11:44;28.50;50.30
22544;DHT22;11438;52.044;8.716;2022-08-21T16:14:12;28.50;50.50
22544;DHT22;11438;52.044;8.716;2022-08-21T16:16:38;28.50;50.00
22544;DHT22;11438;52.044;8.716;2022-08-21T16:19:04;28.50;49.60
22544;DHT22;11438;52.044;8.716;2022-08-21T16:21:31;28.60;49.90
22544;DHT22;11438;52.044;8.716;2022-08-21T16:23:57;28.60;49.40
22544;DHT22;11438;52.044;8.716;2022-08-21T16:26:23;28.60;49.60
22544;DHT22;11438;52.044;8.716;2022-08-21T16:28:50;28.60;50.40
22544;DHT22;11438;52.044;8.716;2022-08-21T16:31:17;28.60;49.90
22544;DHT22;11438;52.044;8.716;2022-08-21T16:33:47;28.60;49.80
22544;DHT22;11438;52.044;8.716;2022-08-21T16:36:14;28.60;49.60
22544;DHT22;11438;52.044;8.716;2022-08-21T16:38:40;28.50;49.70
22544;DHT22;11438;52.044;8.716;2022-08-21T16:41:10;28.60;49.60